Time;durP1;ratioP1;P1;durP2;ratioP2;P2;SDS_P1;SDS_P2;PMS_P1;PMS_P2;Temp;Humidity;BMP_temperature;BMP_pressure;BME280_temperature;BME280_humidity;BME280_pressure;Samples;Min_cycle;Max_cycle;Signal;HPM_P1;HPM_P2
2022/12/17 13:07:39;;;;;;;24.20;16.50;;;22.80;43.30;;;;;;212141;1296;24256;-43
2022/12/17 13:12:46;;;;;;;23.80;17.60;;;22.80;43.20;;;;;;212072;1303;22473;-42
2022/12/17 13:18:15;;;;;;;23.80;16.80;;;22.80;43.30;;;;;;212046;1313;22808;-42
2022/12/17 13:23:37;;;;;;;23.70;16.90;;;22.90;42.90;;;;;;212027;1310;24040;-44
2022/12/17 13:29:25;;;;;;;23.90;17.90;;;22.90;42.70;;;;;;212195;1315;23865;-44
2022/12/17 13:34:58;;;;;;;24.60;16.60;;;22.90;42.60;;;;;;212091;1317;25447;-44
2022/12/17 13:40:18;;;;;;;23.10;16.20;;;23.00;42.40;;;;;;212188;1304;24326;-43
2022/12/17 13:45:24;;;;;;;;;;;23.00;42.10;;;;;;212072;1306;22473;-45
2022/12/17 13:50:30;;;;;;;25.40;16.90;;;23.00;42.10;;;;;;212051;1309;25241;-43
2022/12/17 13:55:38;;;;;;;24.50;17.60;;;23.10;42.60;;;;;;212222;1310;25344;-43
2022/12/17 14:00:42;;;;;;;25.10;18.10;;;23.00;41.80;;;;;;212134;1306;22794;-43
2022/12/17 14:05:47;;;;;;;24.70;16.90;;;23.00;41.80;;;;;;212109;1316;24229;-43
2022/12/17 14:12:20;;;;;;;23.10;16.50;;;23.10;41.80;;;;;;212000;1307;22489;-43
2022/12/17 14:16:19;;;;;;;22.70;16.30;;;23.00;42.20;;;;;;212119;1303;24396;-45
2022/12/17 14:21:24;;;;;;;24.00;18.50;;;23.00;41.70;;;;;;212163;1316;24350;-43
2022/12/17 14:26:28;;;;;;;23.60;17.90;;;23.10;41.60;;;;;;212100;1299;22484;-43
2022/12/17 14:31:32;;;;;;;26.30;17.60;;;23.10;41.50;;;;;;211980;1317;22502;-44
2022/12/17 14:36:42;;;;;;;22.70;16.30;;;23.10;41.70;;;;;;212169;1303;24328;-45
2022/12/17 14:47:19;;;;;;;23.80;17.60;;;23.20;41.20;;;;;;212068;1312;23912;-44
2022/12/17 14:52:38;;;;;;;22.90;16.50;;;23.20;40.90;;;;;;212121;1316;24073;-43
2022/12/17 14:57:51;;;;;;;22.20;16.10;;;23.20;40.90;;;;;;212026;1309;22494;-43
2022/12/17 15:03:04;;;;;;;27.50;17.80;;;23.20;40.90;;;;;;211946;1311;26450;-42
2022/12/17 15:08:41;;;;;;;29.70;17.80;;;23.20;41.10;;;;;;212136;1316;24254;-48
2022/12/17 15:13:53;;;;;;;26.70;16.60;;;22.90;41.60;;;;;;212152;1303;25602;-43
2022/12/17 15:19:00;;;;;;;26.90;17.60;;;22.80;42.10;;;;;;212092;1296;22477;-42
2022/12/17 15:24:09;;;;;;;28.10;18.80;;;22.70;42.60;;;;;;212119;1317;23928;-43
2022/12/17 15:29:13;;;;;;;29.10;18.40;;;22.60;43.50;;;;;;212074;1302;23875;-43
2022/12/17 15:34:20;;;;;;;26.40;17.70;;;22.50;43.70;;;;;;212229;1317;25485;-45
2022/12/17 15:39:24;;;;;;;28.20;17.50;;;22.40;43.90;;;;;;212172;1317;22509;-44
2022/12/17 15:44:28;;;;;;;27.20;18.80;;;22.40;44.10;;;;;;212201;1297;22501;-44
2022/12/17 15:49:36;;;;;;;25.80;18.00;;;22.30;44.50;;;;;;212224;1297;22886;-44
2022/12/17 15:54:43;;;;;;;27.10;17.80;;;22.20;44.20;;;;;;212261;1308;25255;-45
2022/12/17 15:59:50;;;;;;;27.10;16.60;;;22.10;44.30;;;;;;212099;1296;22505;-44
2022/12/17 16:04:53;;;;;;;31.40;21.30;;;22.10;44.60;;;;;;212258;1299;25336;-45
2022/12/17 16:09:58;;;;;;;26.60;18.60;;;22.00;45.20;;;;;;212195;1296;22549;-44
2022/12/17 16:15:10;;;;;;;26.90;18.50;;;22.00;45.50;;;;;;212104;1296;23940;-42
2022/12/17 16:20:14;;;;;;;25.50;18.40;;;21.90;45.30;;;;;;212272;1310;25461;-42
2022/12/17 16:25:19;;;;;;;28.70;18.50;;;21.80;45.20;;;;;;212230;1310;25319;-44
2022/12/17 16:30:23;;;;;;;27.10;18.10;;;21.80;45.20;;;;;;212053;1296;25423;-43
2022/12/17 16:35:29;;;;;;;24.20;17.60;;;21.70;45.20;;;;;;212160;1295;24315;-42
2022/12/17 16:40:52;;;;;;;;;;;;;;;;;;;;;
2022/12/17 16:45:58;;;;;;;31.70;17.90;;;21.60;45.00;;;;;;211962;1309;22756;-44
2022/12/17 16:51:17;;;;;;;27.60;17.00;;;21.60;44.70;;;;;;212061;1310;24306;-46
2022/12/17 16:56:30;;;;;;;25.50;16.60;;;21.50;44.70;;;;;;212111;1310;26330;-44
2022/12/17 17:01:45;;;;;;;27.00;16.50;;;21.80;43.90;;;;;;212051;1291;22485;-43
2022/12/17 17:06:52;;;;;;;23.40;16.30;;;22.10;43.10;;;;;;212306;1317;22490;-44
2022/12/17 17:11:57;;;;;;;26.00;15.20;;;22.30;42.60;;;;;;212066;1302;24250;-46
2022/12/17 17:17:01;;;;;;;25.30;15.50;;;22.50;42.10;;;;;;212173;1311;22503;-46
2022/12/17 17:22:05;;;;;;;23.80;16.20;;;22.70;42.30;;;;;;212213;1317;24287;-44
2022/12/17 17:27:09;;;;;;;26.70;14.60;;;22.80;41.60;;;;;;212142;1311;22490;-44
2022/12/17 17:32:16;;;;;;;24.30;14.20;;;22.90;41.70;;;;;;212232;1310;22742;-44
2022/12/17 17:37:20;;;;;;;22.20;14.50;;;22.90;41.40;;;;;;212184;1296;24143;-46
2022/12/17 17:42:24;;;;;;;24.20;13.50;;;23.00;41.50;;;;;;212228;1305;22738;-44
2022/12/17 17:47:30;;;;;;;23.60;14.20;;;23.10;41.20;;;;;;212238;1317;23332;-45
2022/12/17 17:52:37;;;;;;;22.30;13.10;;;22.90;41.10;;;;;;211964;1302;24252;-44
2022/12/17 17:57:44;;;;;;;24.10;14.70;;;23.00;41.30;;;;;;212238;1318;22695;-44
2022/12/17 18:02:49;;;;;;;22.00;14.50;;;23.00;41.20;;;;;;212187;1303;22635;-41
2022/12/17 18:07:54;;;;;;;22.80;13.70;;;23.00;41.70;;;;;;212192;1297;24441;-43
2022/12/17 18:18:24;;;;;;;24.10;13.40;;;23.10;41.90;;;;;;211984;1295;22484;-44
2022/12/17 18:23:30;;;;;;;21.40;12.70;;;23.10;42.40;;;;;;212174;1315;24234;-42
2022/12/17 18:28:34;;;;;;;27.90;13.50;;;23.10;42.10;;;;;;212021;1317;26497;-43
2022/12/17 18:33:41;;;;;;;27.20;13.10;;;23.10;42.70;;;;;;211981;1311;24210;-44
2022/12/17 18:38:49;;;;;;;20.60;13.40;;;23.10;43.10;;;;;;212191;1308;24103;-43
2022/12/17 18:43:53;;;;;;;25.80;12.30;;;23.10;43.30;;;;;;212108;1309;25408;-42
2022/12/17 18:48:59;;;;;;;24.90;12.80;;;23.20;43.70;;;;;;212080;1303;23222;-42
2022/12/17 18:54:08;;;;;;;23.70;12.90;;;23.20;43.80;;;;;;212080;1309;22519;-44
2022/12/17 18:59:15;;;;;;;24.30;13.40;;;23.10;43.00;;;;;;212051;1290;22633;-42
2022/12/17 19:04:20;;;;;;;24.80;13.40;;;23.00;43.40;;;;;;212110;1315;24053;-42
2022/12/17 19:09:27;;;;;;;24.00;12.90;;;23.00;43.50;;;;;;212174;1296;22487;-43
2022/12/17 19:14:34;;;;;;;19.20;12.30;;;22.90;43.60;;;;;;211931;1298;22497;-43
2022/12/17 19:19:37;;;;;;;20.70;12.70;;;22.70;43.70;;;;;;211776;1297;22497;-42
2022/12/17 19:24:41;;;;;;;18.00;11.40;;;22.60;44.20;;;;;;213299;1307;23970;-41
2022/12/17 19:29:45;;;;;;;19.20;12.30;;;22.60;45.30;;;;;;212072;1312;24323;-43
2022/12/17 19:35:05;;;;;;;24.50;12.40;;;22.50;44.30;;;;;;212018;1289;24331;-42
2022/12/17 19:40:19;;;;;;;18.60;12.20;;;22.50;44.70;;;;;;212017;1309;26241;-41
2022/12/17 19:45:42;;;;;;;21.10;11.20;;;22.40;45.40;;;;;;212061;1295;24735;-41
2022/12/17 19:51:04;;;;;;;22.30;12.10;;;22.30;45.70;;;;;;211980;1304;22793;-42
2022/12/17 19:56:26;;;;;;;18.90;12.60;;;22.10;45.90;;;;;;212017;1310;23905;-43
2022/12/17 20:01:36;;;;;;;17.20;11.20;;;22.10;46.10;;;;;;212192;1306;25905;-41
2022/12/17 20:06:47;;;;;;;17.30;10.60;;;22.00;46.20;;;;;;212205;1297;22489;-44
2022/12/17 20:11:58;;;;;;;15.70;11.00;;;22.10;46.50;;;;;;211783;1309;25338;-42
2022/12/17 20:17:03;;;;;;;21.40;11.50;;;22.00;45.90;;;;;;212060;1313;25260;-41
2022/12/17 20:22:11;;;;;;;21.60;11.70;;;21.90;46.00;;;;;;212131;1299;22948;-41
2022/12/17 20:27:25;;;;;;;16.80;11.60;;;21.80;46.30;;;;;;212265;1300;24285;-44
2022/12/17 20:32:29;;;;;;;22.00;10.90;;;21.80;45.60;;;;;;212072;1312;23610;-43
2022/12/17 20:37:44;;;;;;;19.30;10.50;;;21.80;46.10;;;;;;211998;1306;22638;-43
2022/12/17 20:43:04;;;;;;;25.10;11.20;;;21.70;45.60;;;;;;212235;1310;22490;-43
2022/12/17 20:48:13;;;;;;;17.00;10.60;;;21.60;45.70;;;;;;211760;1297;22803;-43
2022/12/17 20:53:18;;;;;;;16.40;10.20;;;21.60;45.90;;;;;;212163;1311;22611;-42
2022/12/17 20:58:32;;;;;;;28.20;11.60;;;21.50;45.80;;;;;;212063;1318;26616;-42
2022/12/17 21:03:45;;;;;;;19.60;11.90;;;21.40;45.30;;;;;;211948;1302;22489;-42
2022/12/17 21:09:03;;;;;;;19.50;10.80;;;21.30;45.70;;;;;;212223;1298;24328;-41
2022/12/17 21:14:19;;;;;;;20.00;11.10;;;21.30;45.90;;;;;;212070;1299;25545;-44
2022/12/17 21:19:35;;;;;;;25.90;12.30;;;21.20;46.20;;;;;;211685;1299;23361;-46
2022/12/17 21:25:04;;;;;;;35.70;10.50;;;21.20;46.50;;;;;;212087;1311;25449;-45
2022/12/17 21:30:20;;;;;;;22.20;11.10;;;21.30;46.60;;;;;;212019;1310;22509;-46
2022/12/17 21:36:21;;;;;;;25.60;11.70;;;21.70;46.90;;;;;;211989;1317;26484;-45
2022/12/17 21:47:56;;;;;;;33.30;11.60;;;22.20;46.90;;;;;;212036;1305;24840;-43
2022/12/17 21:53:34;;;;;;;20.70;9.40;;;22.70;46.80;;;;;;212093;1293;23158;-44
2022/12/17 21:59:06;;;;;;;25.30;11.30;;;22.70;46.00;;;;;;212085;1306;22483;-44
2022/12/17 22:04:29;;;;;;;19.20;11.00;;;22.90;45.70;;;;;;211886;1296;24391;-44
2022/12/17 22:10:04;;;;;;;27.70;13.00;;;23.00;45.20;;;;;;212052;1318;25435;-49
2022/12/17 22:16:10;;;;;;;25.60;12.20;;;23.10;46.70;;;;;;211349;1300;22746;-44
2022/12/17 22:21:26;;;;;;;27.30;12.20;;;23.10;46.80;;;;;;211631;1314;24224;-44
2022/12/17 22:26:35;;;;;;;28.90;13.70;;;23.00;47.00;;;;;;211702;1315;23231;-44
2022/12/17 22:37:05;;;;;;;25.40;13.40;;;22.80;46.70;;;;;;211900;1305;24336;-44
2022/12/17 22:48:16;;;;;;;22.20;10.10;;;22.50;47.40;;;;;;211495;1320;25302;-43
2022/12/17 22:53:22;;;;;;;24.60;12.90;;;22.40;47.70;;;;;;211293;1310;25374;-43
2022/12/17 22:58:31;;;;;;;;;;;22.30;48.10;;;;;;211227;1302;23143;-42
2022/12/17 23:03:43;;;;;;;21.00;11.30;;;22.10;48.50;;;;;;211203;1315;22489;-43
2022/12/17 23:08:49;;;;;;;21.60;12.10;;;22.00;48.60;;;;;;211276;1308;23081;-42
2022/12/17 23:13:56;;;;;;;23.70;11.00;;;21.90;48.80;;;;;;211805;1318;22589;-44
2022/12/17 23:19:00;;;;;;;19.00;11.40;;;21.80;49.00;;;;;;211991;1306;23698;-44
2022/12/17 23:24:16;;;;;;;20.90;10.50;;;21.80;49.00;;;;;;212030;1304;25327;-43
2022/12/17 23:29:24;;;;;;;19.00;10.40;;;21.60;49.10;;;;;;212151;1302;22545;-43
2022/12/17 23:34:31;;;;;;;20.40;11.80;;;21.60;49.20;;;;;;212008;1311;24252;-43
2022/12/17 23:39:50;;;;;;;20.70;10.50;;;21.60;49.30;;;;;;212074;1317;22661;-43
2022/12/17 23:45:00;;;;;;;19.00;10.30;;;21.50;49.30;;;;;;212110;1287;22506;-43
2022/12/17 23:50:09;;;;;;;17.50;10.10;;;21.40;49.40;;;;;;212017;1299;24348;-45
2022/12/17 23:55:22;;;;;;;18.80;10.00;;;21.30;49.60;;;;;;211748;1305;22505;-46
